sensor_id;sensor_type;location;lat;lon;timestamp;P1;durP1;ratioP1;P2;durP2;ratioP2
55537;SDS011;41383;51.418;7.286;2023-10-19T00:00:36;11.35;;;7.78;;
55537;SDS011;41383;51.418;7.286;2023-10-19T00:03:05;9.70;;;6.22;;
55537;SDS011;41383;51.418;7.286;2023-10-19T00:05:32;66.43;;;59.40;;
55537;SDS011;41383;51.418;7.286;2023-10-19T00:07:58;10.07;;;7.45;;
55537;SDS011;41383;51.418;7.286;2023-10-19T00:10:25;9.88;;;5.38;;
55537;SDS011;41383;51.418;7.286;2023-10-19T00:12:57;17.98;;;16.10;;
55537;SDS011;41383;51.418;7.286;2023-10-19T00:15:28;71.28;;;66.55;;
55537;SDS011;41383;51.418;7.286;2023-10-19T00:17:56;20.63;;;19.05;;
55537;SDS011;41383;51.418;7.286;2023-10-19T00:20:24;11.25;;;10.15;;
55537;SDS011;41383;51.418;7.286;2023-10-19T00:23:02;279.15;;;132.57;;
55537;SDS011;41383;51.418;7.286;2023-10-19T00:25:30;51.08;;;46.42;;
55537;SDS011;41383;51.418;7.286;2023-10-19T00:27:59;181.25;;;165.10;;
55537;SDS011;41383;51.418;7.286;2023-10-19T00:30:26;487.40;;;345.00;;
55537;SDS011;41383;51.418;7.286;2023-10-19T00:36:03;336.73;;;293.42;;
55537;SDS011;41383;51.418;7.286;2023-10-19T02:24:40;11.45;;;8.50;;
55537;SDS011;41383;51.418;7.286;2023-10-19T02:27:06;10.30;;;5.95;;
55537;SDS011;41383;51.418;7.286;2023-10-19T02:29:31;62.67;;;31.65;;
55537;SDS011;41383;51.418;7.286;2023-10-19T02:31:56;13.90;;;6.13;;
55537;SDS011;41383;51.418;7.286;2023-10-19T02:34:22;9.52;;;5.00;;
55537;SDS011;41383;51.418;7.286;2023-10-19T02:36:48;9.15;;;5.35;;
55537;SDS011;41383;51.418;7.286;2023-10-19T02:39:13;12.07;;;5.88;;
55537;SDS011;41383;51.418;7.286;2023-10-19T02:41:40;9.30;;;5.65;;
55537;SDS011;41383;51.418;7.286;2023-10-19T02:44:10;9.57;;;5.20;;
55537;SDS011;41383;51.418;7.286;2023-10-19T02:46:47;9.30;;;5.28;;
55537;SDS011;41383;51.418;7.286;2023-10-19T02:49:15;12.57;;;5.20;;
55537;SDS011;41383;51.418;7.286;2023-10-19T02:51:45;7.68;;;4.10;;
55537;SDS011;41383;51.418;7.286;2023-10-19T02:54:12;7.63;;;4.25;;
55537;SDS011;41383;51.418;7.286;2023-10-19T02:56:45;9.93;;;6.03;;
55537;SDS011;41383;51.418;7.286;2023-10-19T02:59:13;7.65;;;4.32;;
55537;SDS011;41383;51.418;7.286;2023-10-19T03:01:40;6.95;;;4.75;;
55537;SDS011;41383;51.418;7.286;2023-10-19T03:04:09;7.20;;;4.05;;
55537;SDS011;41383;51.418;7.286;2023-10-19T03:06:37;12.60;;;11.43;;
55537;SDS011;41383;51.418;7.286;2023-10-19T03:09:05;7.53;;;4.20;;
55537;SDS011;41383;51.418;7.286;2023-10-19T03:11:47;8.13;;;3.05;;
55537;SDS011;41383;51.418;7.286;2023-10-19T03:14:17;7.75;;;3.60;;
55537;SDS011;41383;51.418;7.286;2023-10-19T03:16:43;8.32;;;3.70;;
55537;SDS011;41383;51.418;7.286;2023-10-19T03:19:08;14.25;;;5.45;;
55537;SDS011;41383;51.418;7.286;2023-10-19T03:21:34;11.13;;;4.63;;
55537;SDS011;41383;51.418;7.286;2023-10-19T03:24:10;9.90;;;8.93;;
55537;SDS011;41383;51.418;7.286;2023-10-19T03:26:51;8.35;;;5.10;;
55537;SDS011;41383;51.418;7.286;2023-10-19T03:29:19;8.32;;;4.55;;
55537;SDS011;41383;51.418;7.286;2023-10-19T03:31:55;8.00;;;4.28;;
55537;SDS011;41383;51.418;7.286;2023-10-19T03:34:21;16.05;;;8.60;;
55537;SDS011;41383;51.418;7.286;2023-10-19T03:36:48;7.57;;;4.13;;
55537;SDS011;41383;51.418;7.286;2023-10-19T03:39:15;6.35;;;2.50;;
55537;SDS011;41383;51.418;7.286;2023-10-19T03:41:42;12.48;;;3.72;;
55537;SDS011;41383;51.418;7.286;2023-10-19T03:44:09;6.63;;;3.28;;
55537;SDS011;41383;51.418;7.286;2023-10-19T03:46:50;13.15;;;4.05;;
55537;SDS011;41383;51.418;7.286;2023-10-19T03:49:35;10.27;;;3.58;;
55537;SDS011;41383;51.418;7.286;2023-10-19T03:52:02;6.32;;;3.22;;
55537;SDS011;41383;51.418;7.286;2023-10-19T03:54:45;5.38;;;2.95;;
55537;SDS011;41383;51.418;7.286;2023-10-19T03:57:13;9.07;;;6.50;;
55537;SDS011;41383;51.418;7.286;2023-10-19T03:59:47;4.40;;;2.75;;
55537;SDS011;41383;51.418;7.286;2023-10-19T04:02:23;5.82;;;3.25;;
55537;SDS011;41383;51.418;7.286;2023-10-19T04:04:53;5.28;;;2.22;;
55537;SDS011;41383;51.418;7.286;2023-10-19T04:07:20;11.13;;;9.60;;
55537;SDS011;41383;51.418;7.286;2023-10-19T04:09:49;8.57;;;3.33;;
55537;SDS011;41383;51.418;7.286;2023-10-19T04:12:31;4.82;;;2.53;;
55537;SDS011;41383;51.418;7.286;2023-10-19T04:15:00;7.57;;;2.88;;
55537;SDS011;41383;51.418;7.286;2023-10-19T04:17:42;6.65;;;2.53;;
55537;SDS011;41383;51.418;7.286;2023-10-19T04:20:08;6.68;;;2.60;;
55537;SDS011;41383;51.418;7.286;2023-10-19T04:22:54;4.22;;;2.33;;
55537;SDS011;41383;51.418;7.286;2023-10-19T04:25:20;4.65;;;2.28;;
55537;SDS011;41383;51.418;7.286;2023-10-19T04:27:46;4.55;;;2.03;;
55537;SDS011;41383;51.418;7.286;2023-10-19T04:30:14;4.70;;;2.17;;
55537;SDS011;41383;51.418;7.286;2023-10-19T04:32:47;5.57;;;2.47;;
55537;SDS011;41383;51.418;7.286;2023-10-19T04:35:13;7.20;;;3.05;;
55537;SDS011;41383;51.418;7.286;2023-10-19T04:37:40;5.47;;;3.88;;
55537;SDS011;41383;51.418;7.286;2023-10-19T04:40:08;6.78;;;2.45;;
55537;SDS011;41383;51.418;7.286;2023-10-19T04:42:37;5.78;;;2.17;;
55537;SDS011;41383;51.418;7.286;2023-10-19T04:45:03;5.35;;;1.80;;
55537;SDS011;41383;51.418;7.286;2023-10-19T04:47:30;4.93;;;2.33;;
55537;SDS011;41383;51.418;7.286;2023-10-19T04:49:55;4.97;;;3.28;;
55537;SDS011;41383;51.418;7.286;2023-10-19T04:52:21;5.85;;;2.28;;
55537;SDS011;41383;51.418;7.286;2023-10-19T04:54:46;7.55;;;2.85;;
55537;SDS011;41383;51.418;7.286;2023-10-19T04:57:12;4.35;;;1.90;;
55537;SDS011;41383;51.418;7.286;2023-10-19T04:59:37;3.97;;;2.28;;
55537;SDS011;41383;51.418;7.286;2023-10-19T05:02:03;8.00;;;3.08;;
55537;SDS011;41383;51.418;7.286;2023-10-19T05:04:29;7.50;;;2.22;;
55537;SDS011;41383;51.418;7.286;2023-10-19T05:06:54;4.80;;;2.22;;
55537;SDS011;41383;51.418;7.286;2023-10-19T05:09:20;7.18;;;2.25;;
55537;SDS011;41383;51.418;7.286;2023-10-19T05:11:45;7.43;;;2.35;;
55537;SDS011;41383;51.418;7.286;2023-10-19T05:14:11;5.07;;;2.45;;
55537;SDS011;41383;51.418;7.286;2023-10-19T05:16:39;6.45;;;2.58;;
55537;SDS011;41383;51.418;7.286;2023-10-19T05:19:05;5.88;;;2.08;;
55537;SDS011;41383;51.418;7.286;2023-10-19T05:21:30;29.35;;;5.68;;
55537;SDS011;41383;51.418;7.286;2023-10-19T05:23:55;6.03;;;2.30;;
55537;SDS011;41383;51.418;7.286;2023-10-19T05:26:21;6.32;;;3.33;;
55537;SDS011;41383;51.418;7.286;2023-10-19T05:28:46;6.50;;;2.88;;
55537;SDS011;41383;51.418;7.286;2023-10-19T05:31:12;9.25;;;3.20;;
55537;SDS011;41383;51.418;7.286;2023-10-19T05:33:38;5.82;;;3.85;;
55537;SDS011;41383;51.418;7.286;2023-10-19T05:36:03;7.88;;;3.47;;
55537;SDS011;41383;51.418;7.286;2023-10-19T05:38:30;8.82;;;2.85;;
55537;SDS011;41383;51.418;7.286;2023-10-19T05:40:57;6.07;;;2.75;;
55537;SDS011;41383;51.418;7.286;2023-10-19T05:43:24;8.90;;;3.08;;
55537;SDS011;41383;51.418;7.286;2023-10-19T05:45:53;4.85;;;2.78;;
55537;SDS011;41383;51.418;7.286;2023-10-19T05:48:19;5.80;;;2.25;;
55537;SDS011;41383;51.418;7.286;2023-10-19T05:50:45;8.75;;;3.85;;
55537;SDS011;41383;51.418;7.286;2023-10-19T05:53:10;5.75;;;2.75;;
55537;SDS011;41383;51.418;7.286;2023-10-19T05:55:36;9.02;;;3.03;;
55537;SDS011;41383;51.418;7.286;2023-10-19T05:58:01;5.43;;;2.60;;
55537;SDS011;41383;51.418;7.286;2023-10-19T06:00:30;7.60;;;2.97;;
55537;SDS011;41383;51.418;7.286;2023-10-19T06:02:56;6.95;;;3.38;;
55537;SDS011;41383;51.418;7.286;2023-10-19T06:05:22;6.25;;;2.45;;
55537;SDS011;41383;51.418;7.286;2023-10-19T06:07:49;6.93;;;2.85;;
55537;SDS011;41383;51.418;7.286;2023-10-19T06:10:18;8.25;;;2.75;;
55537;SDS011;41383;51.418;7.286;2023-10-19T06:12:46;7.57;;;2.97;;
55537;SDS011;41383;51.418;7.286;2023-10-19T06:15:13;8.35;;;2.97;;
55537;SDS011;41383;51.418;7.286;2023-10-19T06:17:39;7.90;;;3.33;;
55537;SDS011;41383;51.418;7.286;2023-10-19T06:20:09;7.00;;;2.90;;
55537;SDS011;41383;51.418;7.286;2023-10-19T06:22:48;6.22;;;2.90;;
55537;SDS011;41383;51.418;7.286;2023-10-19T06:25:30;5.78;;;3.15;;
55537;SDS011;41383;51.418;7.286;2023-10-19T06:27:55;7.63;;;3.00;;
55537;SDS011;41383;51.418;7.286;2023-10-19T06:30:22;7.88;;;3.60;;
55537;SDS011;41383;51.418;7.286;2023-10-19T06:32:49;8.45;;;3.78;;
55537;SDS011;41383;51.418;7.286;2023-10-19T06:35:15;7.88;;;3.55;;
55537;SDS011;41383;51.418;7.286;2023-10-19T06:37:42;6.53;;;3.50;;
55537;SDS011;41383;51.418;7.286;2023-10-19T06:40:07;7.57;;;3.42;;
55537;SDS011;41383;51.418;7.286;2023-10-19T06:42:33;6.40;;;3.95;;
55537;SDS011;41383;51.418;7.286;2023-10-19T06:45:00;10.18;;;4.13;;
55537;SDS011;41383;51.418;7.286;2023-10-19T06:47:25;9.57;;;4.38;;
55537;SDS011;41383;51.418;7.286;2023-10-19T06:49:51;7.67;;;4.00;;
55537;SDS011;41383;51.418;7.286;2023-10-19T06:52:16;17.20;;;4.27;;
55537;SDS011;41383;51.418;7.286;2023-10-19T06:54:41;8.43;;;3.97;;
55537;SDS011;41383;51.418;7.286;2023-10-19T06:57:07;7.57;;;3.65;;
55537;SDS011;41383;51.418;7.286;2023-10-19T06:59:33;9.43;;;4.07;;
55537;SDS011;41383;51.418;7.286;2023-10-19T07:01:58;6.32;;;3.40;;
55537;SDS011;41383;51.418;7.286;2023-10-19T07:04:26;12.35;;;4.25;;
55537;SDS011;41383;51.418;7.286;2023-10-19T07:06:51;9.15;;;4.28;;
55537;SDS011;41383;51.418;7.286;2023-10-19T07:09:17;7.30;;;3.88;;
55537;SDS011;41383;51.418;7.286;2023-10-19T07:11:43;7.68;;;4.72;;
55537;SDS011;41383;51.418;7.286;2023-10-19T07:14:09;12.40;;;4.38;;
55537;SDS011;41383;51.418;7.286;2023-10-19T07:16:35;6.32;;;2.78;;
55537;SDS011;41383;51.418;7.286;2023-10-19T07:19:01;8.77;;;3.78;;
55537;SDS011;41383;51.418;7.286;2023-10-19T07:21:26;6.13;;;3.08;;
55537;SDS011;41383;51.418;7.286;2023-10-19T07:23:54;6.32;;;2.75;;
55537;SDS011;41383;51.418;7.286;2023-10-19T07:26:21;5.85;;;2.65;;
55537;SDS011;41383;51.418;7.286;2023-10-19T07:28:55;5.78;;;2.47;;
55537;SDS011;41383;51.418;7.286;2023-10-19T07:31:20;4.60;;;2.22;;
55537;SDS011;41383;51.418;7.286;2023-10-19T07:33:46;6.45;;;2.50;;
55537;SDS011;41383;51.418;7.286;2023-10-19T07:36:12;8.43;;;3.33;;
55537;SDS011;41383;51.418;7.286;2023-10-19T07:38:39;5.70;;;2.75;;
55537;SDS011;41383;51.418;7.286;2023-10-19T07:41:05;8.02;;;2.80;;
55537;SDS011;41383;51.418;7.286;2023-10-19T07:43:31;6.03;;;3.00;;
55537;SDS011;41383;51.418;7.286;2023-10-19T07:45:56;5.45;;;3.22;;
55537;SDS011;41383;51.418;7.286;2023-10-19T07:48:21;8.70;;;2.88;;
55537;SDS011;41383;51.418;7.286;2023-10-19T07:50:47;9.27;;;2.55;;
55537;SDS011;41383;51.418;7.286;2023-10-19T07:53:12;8.20;;;2.72;;
55537;SDS011;41383;51.418;7.286;2023-10-19T07:55:37;6.75;;;2.25;;
55537;SDS011;41383;51.418;7.286;2023-10-19T07:58:04;4.05;;;2.00;;
55537;SDS011;41383;51.418;7.286;2023-10-19T08:00:30;5.05;;;2.25;;
55537;SDS011;41383;51.418;7.286;2023-10-19T08:02:56;4.18;;;2.05;;
55537;SDS011;41383;51.418;7.286;2023-10-19T08:05:21;5.50;;;1.67;;
55537;SDS011;41383;51.418;7.286;2023-10-19T08:07:47;5.85;;;2.75;;
55537;SDS011;41383;51.418;7.286;2023-10-19T08:10:13;7.47;;;3.28;;
55537;SDS011;41383;51.418;7.286;2023-10-19T08:12:40;10.50;;;3.45;;
55537;SDS011;41383;51.418;7.286;2023-10-19T08:15:07;5.78;;;2.15;;
55537;SDS011;41383;51.418;7.286;2023-10-19T08:17:36;7.75;;;2.10;;
55537;SDS011;41383;51.418;7.286;2023-10-19T08:20:03;4.25;;;2.13;;
55537;SDS011;41383;51.418;7.286;2023-10-19T08:22:33;4.50;;;1.85;;
55537;SDS011;41383;51.418;7.286;2023-10-19T08:24:59;4.43;;;2.78;;
55537;SDS011;41383;51.418;7.286;2023-10-19T08:27:24;8.10;;;2.87;;
55537;SDS011;41383;51.418;7.286;2023-10-19T08:29:49;4.43;;;2.17;;
55537;SDS011;41383;51.418;7.286;2023-10-19T08:32:15;10.48;;;3.17;;
55537;SDS011;41383;51.418;7.286;2023-10-19T08:34:41;5.20;;;2.15;;
55537;SDS011;41383;51.418;7.286;2023-10-19T08:37:06;6.53;;;2.50;;
55537;SDS011;41383;51.418;7.286;2023-10-19T08:39:32;6.68;;;3.47;;
55537;SDS011;41383;51.418;7.286;2023-10-19T08:42:04;4.97;;;1.90;;
55537;SDS011;41383;51.418;7.286;2023-10-19T08:44:30;8.50;;;2.33;;
55537;SDS011;41383;51.418;7.286;2023-10-19T08:46:55;5.60;;;1.75;;
55537;SDS011;41383;51.418;7.286;2023-10-19T08:49:22;7.82;;;1.98;;
55537;SDS011;41383;51.418;7.286;2023-10-19T08:51:48;6.47;;;2.13;;
55537;SDS011;41383;51.418;7.286;2023-10-19T08:54:16;9.40;;;2.05;;
55537;SDS011;41383;51.418;7.286;2023-10-19T08:56:42;3.53;;;1.83;;
55537;SDS011;41383;51.418;7.286;2023-10-19T08:59:08;4.88;;;2.22;;
55537;SDS011;41383;51.418;7.286;2023-10-19T09:01:35;13.27;;;2.42;;
55537;SDS011;41383;51.418;7.286;2023-10-19T09:04:02;9.18;;;3.00;;
55537;SDS011;41383;51.418;7.286;2023-10-19T09:06:27;7.25;;;2.47;;
55537;SDS011;41383;51.418;7.286;2023-10-19T09:08:54;4.82;;;2.40;;
55537;SDS011;41383;51.418;7.286;2023-10-19T09:11:20;4.85;;;2.60;;
55537;SDS011;41383;51.418;7.286;2023-10-19T09:13:47;10.65;;;2.95;;
55537;SDS011;41383;51.418;7.286;2023-10-19T09:16:18;8.85;;;2.40;;
55537;SDS011;41383;51.418;7.286;2023-10-19T09:18:45;6.60;;;2.65;;
55537;SDS011;41383;51.418;7.286;2023-10-19T09:21:15;6.72;;;2.38;;
55537;SDS011;41383;51.418;7.286;2023-10-19T09:23:50;6.88;;;2.53;;
55537;SDS011;41383;51.418;7.286;2023-10-19T09:26:17;10.45;;;2.45;;
55537;SDS011;41383;51.418;7.286;2023-10-19T09:28:45;6.22;;;2.70;;
55537;SDS011;41383;51.418;7.286;2023-10-19T09:31:12;7.70;;;2.25;;
55537;SDS011;41383;51.418;7.286;2023-10-19T09:33:38;8.40;;;2.97;;
55537;SDS011;41383;51.418;7.286;2023-10-19T09:36:09;7.78;;;2.63;;
55537;SDS011;41383;51.418;7.286;2023-10-19T09:38:48;7.75;;;2.92;;
55537;SDS011;41383;51.418;7.286;2023-10-19T09:41:19;9.27;;;3.05;;
55537;SDS011;41383;51.418;7.286;2023-10-19T09:43:47;12.30;;;2.30;;
55537;SDS011;41383;51.418;7.286;2023-10-19T09:46:19;7.45;;;2.75;;
55537;SDS011;41383;51.418;7.286;2023-10-19T09:48:46;9.75;;;2.67;;
55537;SDS011;41383;51.418;7.286;2023-10-19T09:51:16;8.27;;;2.53;;
55537;SDS011;41383;51.418;7.286;2023-10-19T09:53:44;6.30;;;2.78;;
55537;SDS011;41383;51.418;7.286;2023-10-19T11:47:26;8.65;;;3.28;;
55537;SDS011;41383;51.418;7.286;2023-10-19T11:49:51;7.22;;;5.80;;
55537;SDS011;41383;51.418;7.286;2023-10-19T11:52:16;6.07;;;3.20;;
55537;SDS011;41383;51.418;7.286;2023-10-19T11:54:42;9.77;;;8.85;;
55537;SDS011;41383;51.418;7.286;2023-10-19T11:57:07;6.57;;;4.63;;
55537;SDS011;41383;51.418;7.286;2023-10-19T11:59:32;5.33;;;2.30;;
55537;SDS011;41383;51.418;7.286;2023-10-19T12:01:57;9.07;;;3.30;;
55537;SDS011;41383;51.418;7.286;2023-10-19T12:04:23;6.07;;;2.83;;
55537;SDS011;41383;51.418;7.286;2023-10-19T12:06:49;7.70;;;3.30;;
55537;SDS011;41383;51.418;7.286;2023-10-19T12:09:15;14.90;;;4.50;;
55537;SDS011;41383;51.418;7.286;2023-10-19T12:11:43;6.80;;;2.60;;
55537;SDS011;41383;51.418;7.286;2023-10-19T12:14:09;6.72;;;1.48;;
55537;SDS011;41383;51.418;7.286;2023-10-19T12:16:39;5.55;;;1.50;;
55537;SDS011;41383;51.418;7.286;2023-10-19T12:19:05;7.47;;;1.92;;
55537;SDS011;41383;51.418;7.286;2023-10-19T12:21:33;5.63;;;1.45;;
55537;SDS011;41383;51.418;7.286;2023-10-19T12:23:58;7.85;;;2.70;;
55537;SDS011;41383;51.418;7.286;2023-10-19T12:26:26;8.52;;;2.63;;
55537;SDS011;41383;51.418;7.286;2023-10-19T12:28:51;8.52;;;1.92;;
55537;SDS011;41383;51.418;7.286;2023-10-19T12:31:16;6.82;;;1.95;;
55537;SDS011;41383;51.418;7.286;2023-10-19T12:33:47;6.78;;;1.90;;
55537;SDS011;41383;51.418;7.286;2023-10-19T12:36:12;6.97;;;2.10;;
55537;SDS011;41383;51.418;7.286;2023-10-19T12:41:22;5.13;;;1.23;;
55537;SDS011;41383;51.418;7.286;2023-10-19T12:43:48;5.05;;;1.67;;
55537;SDS011;41383;51.418;7.286;2023-10-19T12:46:17;5.32;;;1.58;;
55537;SDS011;41383;51.418;7.286;2023-10-19T12:48:44;7.72;;;2.17;;
55537;SDS011;41383;51.418;7.286;2023-10-19T12:51:12;7.15;;;2.13;;
55537;SDS011;41383;51.418;7.286;2023-10-19T12:53:38;5.80;;;1.88;;
55537;SDS011;41383;51.418;7.286;2023-10-19T12:56:04;15.73;;;2.75;;
55537;SDS011;41383;51.418;7.286;2023-10-19T12:58:35;5.63;;;1.67;;
55537;SDS011;41383;51.418;7.286;2023-10-19T13:01:00;7.77;;;1.47;;
55537;SDS011;41383;51.418;7.286;2023-10-19T13:03:30;17.10;;;4.35;;
55537;SDS011;41383;51.418;7.286;2023-10-19T13:05:57;9.88;;;2.53;;
55537;SDS011;41383;51.418;7.286;2023-10-19T13:08:23;7.82;;;3.05;;
55537;SDS011;41383;51.418;7.286;2023-10-19T13:10:52;5.65;;;1.67;;
55537;SDS011;41383;51.418;7.286;2023-10-19T13:13:17;7.35;;;2.53;;
55537;SDS011;41383;51.418;7.286;2023-10-19T13:15:46;6.00;;;1.63;;
55537;SDS011;41383;51.418;7.286;2023-10-19T13:18:13;5.60;;;1.65;;
55537;SDS011;41383;51.418;7.286;2023-10-19T13:20:44;9.07;;;3.08;;
55537;SDS011;41383;51.418;7.286;2023-10-19T13:23:10;4.95;;;1.70;;
55537;SDS011;41383;51.418;7.286;2023-10-19T13:25:46;5.47;;;1.80;;
55537;SDS011;41383;51.418;7.286;2023-10-19T13:28:12;6.75;;;2.33;;
55537;SDS011;41383;51.418;7.286;2023-10-19T13:30:42;7.93;;;2.15;;
55537;SDS011;41383;51.418;7.286;2023-10-19T13:33:12;12.45;;;3.13;;
55537;SDS011;41383;51.418;7.286;2023-10-19T13:35:39;14.15;;;2.63;;
55537;SDS011;41383;51.418;7.286;2023-10-19T13:38:05;6.47;;;2.10;;
55537;SDS011;41383;51.418;7.286;2023-10-19T13:40:32;6.68;;;2.65;;
55537;SDS011;41383;51.418;7.286;2023-10-19T13:42:58;5.20;;;2.10;;
55537;SDS011;41383;51.418;7.286;2023-10-19T13:45:24;10.23;;;2.38;;
55537;SDS011;41383;51.418;7.286;2023-10-19T13:47:50;7.30;;;1.90;;
55537;SDS011;41383;51.418;7.286;2023-10-19T13:50:19;9.75;;;2.47;;
55537;SDS011;41383;51.418;7.286;2023-10-19T13:52:49;9.00;;;3.83;;
55537;SDS011;41383;51.418;7.286;2023-10-19T13:55:18;7.22;;;2.67;;
55537;SDS011;41383;51.418;7.286;2023-10-19T13:57:45;12.63;;;2.45;;
55537;SDS011;41383;51.418;7.286;2023-10-19T14:00:11;6.45;;;2.63;;
55537;SDS011;41383;51.418;7.286;2023-10-19T14:02:50;7.93;;;2.25;;
55537;SDS011;41383;51.418;7.286;2023-10-19T14:05:16;11.75;;;3.20;;
55537;SDS011;41383;51.418;7.286;2023-10-19T14:07:43;7.85;;;3.10;;
55537;SDS011;41383;51.418;7.286;2023-10-19T14:10:09;6.10;;;2.67;;
55537;SDS011;41383;51.418;7.286;2023-10-19T14:12:38;9.02;;;2.25;;
55537;SDS011;41383;51.418;7.286;2023-10-19T14:15:07;10.05;;;3.55;;
55537;SDS011;41383;51.418;7.286;2023-10-19T14:17:42;10.43;;;2.80;;
55537;SDS011;41383;51.418;7.286;2023-10-19T14:20:10;10.23;;;2.50;;
55537;SDS011;41383;51.418;7.286;2023-10-19T14:22:37;10.02;;;2.50;;
55537;SDS011;41383;51.418;7.286;2023-10-19T14:25:10;10.20;;;3.63;;
55537;SDS011;41383;51.418;7.286;2023-10-19T14:30:05;11.93;;;2.03;;
55537;SDS011;41383;51.418;7.286;2023-10-19T14:32:32;9.27;;;2.90;;
55537;SDS011;41383;51.418;7.286;2023-10-19T17:52:45;9.43;;;4.67;;
55537;SDS011;41383;51.418;7.286;2023-10-19T17:55:14;9.55;;;4.20;;
55537;SDS011;41383;51.418;7.286;2023-10-19T17:57:50;8.23;;;3.93;;
55537;SDS011;41383;51.418;7.286;2023-10-19T18:00:42;8.00;;;4.55;;
55537;SDS011;41383;51.418;7.286;2023-10-19T18:03:29;10.07;;;4.38;;
55537;SDS011;41383;51.418;7.286;2023-10-19T18:05:58;11.65;;;4.90;;
55537;SDS011;41383;51.418;7.286;2023-10-19T18:08:41;10.30;;;4.80;;
55537;SDS011;41383;51.418;7.286;2023-10-19T18:11:12;8.60;;;5.43;;
55537;SDS011;41383;51.418;7.286;2023-10-19T18:13:46;11.45;;;5.43;;
55537;SDS011;41383;51.418;7.286;2023-10-19T18:16:35;6.43;;;3.72;;
55537;SDS011;41383;51.418;7.286;2023-10-19T18:19:40;8.63;;;3.67;;
55537;SDS011;41383;51.418;7.286;2023-10-19T18:22:14;18.33;;;4.15;;
55537;SDS011;41383;51.418;7.286;2023-10-19T18:24:50;7.95;;;3.55;;
55537;SDS011;41383;51.418;7.286;2023-10-19T18:27:33;8.63;;;3.70;;
55537;SDS011;41383;51.418;7.286;2023-10-19T18:29:58;9.45;;;4.18;;
55537;SDS011;41383;51.418;7.286;2023-10-19T18:32:24;10.20;;;4.20;;
55537;SDS011;41383;51.418;7.286;2023-10-19T18:34:49;9.70;;;3.88;;
55537;SDS011;41383;51.418;7.286;2023-10-19T18:37:15;9.32;;;3.95;;
55537;SDS011;41383;51.418;7.286;2023-10-19T18:39:42;8.07;;;4.40;;
55537;SDS011;41383;51.418;7.286;2023-10-19T18:42:08;12.18;;;3.97;;
55537;SDS011;41383;51.418;7.286;2023-10-19T18:44:36;10.95;;;4.32;;
55537;SDS011;41383;51.418;7.286;2023-10-19T18:47:02;10.30;;;5.57;;
55537;SDS011;41383;51.418;7.286;2023-10-19T18:49:28;15.85;;;4.82;;
55537;SDS011;41383;51.418;7.286;2023-10-19T18:51:53;10.48;;;4.60;;
55537;SDS011;41383;51.418;7.286;2023-10-19T18:54:18;8.33;;;4.80;;
55537;SDS011;41383;51.418;7.286;2023-10-19T18:56:44;7.47;;;3.63;;
55537;SDS011;41383;51.418;7.286;2023-10-19T18:59:10;8.13;;;4.07;;
55537;SDS011;41383;51.418;7.286;2023-10-19T19:01:35;7.77;;;4.40;;
55537;SDS011;41383;51.418;7.286;2023-10-19T19:04:00;8.80;;;4.72;;
55537;SDS011;41383;51.418;7.286;2023-10-19T19:06:26;8.88;;;4.78;;
55537;SDS011;41383;51.418;7.286;2023-10-19T19:08:51;8.40;;;4.65;;
55537;SDS011;41383;51.418;7.286;2023-10-19T19:11:17;9.38;;;4.50;;
55537;SDS011;41383;51.418;7.286;2023-10-19T19:13:43;10.30;;;4.35;;
55537;SDS011;41383;51.418;7.286;2023-10-19T19:16:08;8.20;;;4.50;;
55537;SDS011;41383;51.418;7.286;2023-10-19T19:18:35;9.55;;;4.50;;
55537;SDS011;41383;51.418;7.286;2023-10-19T19:21:01;10.23;;;4.43;;
55537;SDS011;41383;51.418;7.286;2023-10-19T19:23:29;9.50;;;4.90;;
55537;SDS011;41383;51.418;7.286;2023-10-19T19:25:57;12.40;;;4.68;;
55537;SDS011;41383;51.418;7.286;2023-10-19T19:28:23;13.48;;;4.32;;
55537;SDS011;41383;51.418;7.286;2023-10-19T19:30:48;8.48;;;4.82;;
55537;SDS011;41383;51.418;7.286;2023-10-19T19:33:14;8.85;;;4.82;;
55537;SDS011;41383;51.418;7.286;2023-10-19T19:35:42;11.18;;;4.53;;
55537;SDS011;41383;51.418;7.286;2023-10-19T19:38:08;9.43;;;4.47;;
55537;SDS011;41383;51.418;7.286;2023-10-19T19:40:34;8.40;;;5.10;;
55537;SDS011;41383;51.418;7.286;2023-10-19T19:42:59;10.43;;;5.27;;
55537;SDS011;41383;51.418;7.286;2023-10-19T19:45:25;19.60;;;5.50;;
55537;SDS011;41383;51.418;7.286;2023-10-19T19:47:51;10.43;;;5.60;;
55537;SDS011;41383;51.418;7.286;2023-10-19T19:50:18;11.73;;;5.50;;
55537;SDS011;41383;51.418;7.286;2023-10-19T19:52:45;11.90;;;5.70;;
55537;SDS011;41383;51.418;7.286;2023-10-19T19:55:11;11.00;;;5.72;;
55537;SDS011;41383;51.418;7.286;2023-10-19T19:57:38;10.35;;;5.72;;
55537;SDS011;41383;51.418;7.286;2023-10-19T20:00:08;11.18;;;5.00;;
55537;SDS011;41383;51.418;7.286;2023-10-19T20:02:41;12.75;;;6.18;;
55537;SDS011;41383;51.418;7.286;2023-10-19T20:05:09;12.40;;;7.78;;
55537;SDS011;41383;51.418;7.286;2023-10-19T20:07:35;14.82;;;6.80;;
55537;SDS011;41383;51.418;7.286;2023-10-19T20:10:03;11.43;;;5.85;;
55537;SDS011;41383;51.418;7.286;2023-10-19T20:12:29;12.23;;;6.22;;
55537;SDS011;41383;51.418;7.286;2023-10-19T20:14:54;12.13;;;5.55;;
55537;SDS011;41383;51.418;7.286;2023-10-19T20:17:20;9.87;;;5.73;;
55537;SDS011;41383;51.418;7.286;2023-10-19T20:19:45;10.95;;;6.35;;
55537;SDS011;41383;51.418;7.286;2023-10-19T20:22:10;12.15;;;5.57;;
55537;SDS011;41383;51.418;7.286;2023-10-19T20:24:36;8.88;;;5.07;;
55537;SDS011;41383;51.418;7.286;2023-10-19T20:27:02;10.50;;;5.32;;
55537;SDS011;41383;51.418;7.286;2023-10-19T20:29:27;10.52;;;6.00;;
55537;SDS011;41383;51.418;7.286;2023-10-19T20:31:54;13.20;;;6.00;;
55537;SDS011;41383;51.418;7.286;2023-10-19T20:34:19;10.10;;;5.20;;
55537;SDS011;41383;51.418;7.286;2023-10-19T20:36:44;9.80;;;5.07;;
55537;SDS011;41383;51.418;7.286;2023-10-19T20:39:11;9.23;;;5.55;;
55537;SDS011;41383;51.418;7.286;2023-10-19T20:41:38;17.08;;;9.18;;
55537;SDS011;41383;51.418;7.286;2023-10-19T20:44:07;8.70;;;6.00;;
55537;SDS011;41383;51.418;7.286;2023-10-19T20:46:34;10.93;;;5.93;;
55537;SDS011;41383;51.418;7.286;2023-10-19T20:48:59;12.40;;;7.18;;
55537;SDS011;41383;51.418;7.286;2023-10-19T20:51:24;9.75;;;5.63;;
55537;SDS011;41383;51.418;7.286;2023-10-19T20:53:50;11.82;;;5.57;;
55537;SDS011;41383;51.418;7.286;2023-10-19T20:56:15;10.93;;;5.47;;
55537;SDS011;41383;51.418;7.286;2023-10-19T20:58:40;22.10;;;6.80;;
55537;SDS011;41383;51.418;7.286;2023-10-19T21:01:06;7.10;;;4.00;;
55537;SDS011;41383;51.418;7.286;2023-10-19T21:03:33;11.63;;;6.00;;
55537;SDS011;41383;51.418;7.286;2023-10-19T21:08:40;9.70;;;5.28;;
55537;SDS011;41383;51.418;7.286;2023-10-19T21:11:15;10.48;;;4.85;;
55537;SDS011;41383;51.418;7.286;2023-10-19T21:13:42;11.40;;;5.70;;
55537;SDS011;41383;51.418;7.286;2023-10-19T21:16:08;15.93;;;4.88;;
55537;SDS011;41383;51.418;7.286;2023-10-19T21:18:37;13.80;;;5.22;;
55537;SDS011;41383;51.418;7.286;2023-10-19T21:21:03;8.30;;;4.82;;
55537;SDS011;41383;51.418;7.286;2023-10-19T21:23:30;9.00;;;4.20;;
55537;SDS011;41383;51.418;7.286;2023-10-19T21:25:55;7.15;;;4.32;;
55537;SDS011;41383;51.418;7.286;2023-10-19T21:28:21;12.07;;;6.50;;
55537;SDS011;41383;51.418;7.286;2023-10-19T21:30:47;9.38;;;5.00;;
55537;SDS011;41383;51.418;7.286;2023-10-19T21:33:12;9.00;;;3.55;;
55537;SDS011;41383;51.418;7.286;2023-10-19T21:35:38;9.18;;;4.47;;
55537;SDS011;41383;51.418;7.286;2023-10-19T21:38:05;7.88;;;4.20;;
55537;SDS011;41383;51.418;7.286;2023-10-19T21:40:30;8.40;;;4.03;;
55537;SDS011;41383;51.418;7.286;2023-10-19T21:42:56;8.90;;;3.80;;
55537;SDS011;41383;51.418;7.286;2023-10-19T21:45:21;6.47;;;3.72;;
55537;SDS011;41383;51.418;7.286;2023-10-19T21:47:47;7.18;;;3.85;;
55537;SDS011;41383;51.418;7.286;2023-10-19T21:50:12;8.45;;;3.95;;
55537;SDS011;41383;51.418;7.286;2023-10-19T21:52:38;9.02;;;4.70;;